X  Close Metar Aviation Weather Data     CYYC Calgary International
Temperature
5°C Temperature
-8°C Dewpoint
39% Humidity



Wind
24 KM/H
15 MPH
7 M/S
13 KTS



260°
West
Current Conditions

Partly Cloudy Partly Cloudy
Pressure 1000.32 (hPa) - 29.54 (inHg)
Visibility 15 (mile) - 24.1 (km)
Airport
Airport-code CYYC

Location: Calgary International
Distance: 4 (km)

Metar:
CYYC 070300Z 26013G20KT 15SM FEW050 FEW170 SCT220 05/M08 A2954 RMK SC1AC1CI2 SC TR SLP047 DENSITY ALT 3800FT

Time: 06-04-2020 21:00 MDT